sensor_id;sensor_type;location;lat;lon;timestamp;P1;durP1;ratioP1;P2;durP2;ratioP2
23555;SDS011;11956;53.184;8.578;2022-10-16T00:00:54;3.85;;;2.47;;
23555;SDS011;11956;53.184;8.578;2022-10-16T00:03:55;6.68;;;2.65;;
23555;SDS011;11956;53.184;8.578;2022-10-16T00:06:58;2.88;;;2.25;;
23555;SDS011;11956;53.184;8.578;2022-10-16T00:09:59;6.95;;;2.75;;
23555;SDS011;11956;53.184;8.578;2022-10-16T00:12:59;5.72;;;2.20;;
23555;SDS011;11956;53.184;8.578;2022-10-16T00:16:01;4.25;;;2.25;;
23555;SDS011;11956;53.184;8.578;2022-10-16T00:19:02;6.00;;;2.60;;
23555;SDS011;11956;53.184;8.578;2022-10-16T00:22:04;5.70;;;2.65;;
23555;SDS011;11956;53.184;8.578;2022-10-16T00:25:05;3.58;;;2.40;;
23555;SDS011;11956;53.184;8.578;2022-10-16T00:28:06;4.10;;;2.30;;
23555;SDS011;11956;53.184;8.578;2022-10-16T00:31:11;5.30;;;2.42;;
23555;SDS011;11956;53.184;8.578;2022-10-16T00:34:12;4.95;;;2.90;;
23555;SDS011;11956;53.184;8.578;2022-10-16T00:37:13;6.20;;;2.75;;
23555;SDS011;11956;53.184;8.578;2022-10-16T00:40:14;6.20;;;2.53;;
23555;SDS011;11956;53.184;8.578;2022-10-16T00:50:31;4.93;;;2.55;;
23555;SDS011;11956;53.184;8.578;2022-10-16T00:53:34;6.70;;;2.47;;
23555;SDS011;11956;53.184;8.578;2022-10-16T00:56:35;5.70;;;2.33;;
23555;SDS011;11956;53.184;8.578;2022-10-16T00:59:37;5.13;;;2.30;;
23555;SDS011;11956;53.184;8.578;2022-10-16T01:02:40;8.52;;;2.45;;
23555;SDS011;11956;53.184;8.578;2022-10-16T01:05:44;6.18;;;2.00;;
23555;SDS011;11956;53.184;8.578;2022-10-16T01:18:56;6.97;;;2.40;;
23555;SDS011;11956;53.184;8.578;2022-10-16T01:22:05;5.25;;;2.08;;
23555;SDS011;11956;53.184;8.578;2022-10-16T01:25:09;3.85;;;2.35;;
23555;SDS011;11956;53.184;8.578;2022-10-16T01:28:24;5.07;;;2.13;;
23555;SDS011;11956;53.184;8.578;2022-10-16T01:34:51;4.80;;;2.27;;
23555;SDS011;11956;53.184;8.578;2022-10-16T01:38:20;6.40;;;2.50;;
23555;SDS011;11956;53.184;8.578;2022-10-16T01:41:34;9.95;;;2.80;;
23555;SDS011;11956;53.184;8.578;2022-10-16T01:44:49;7.75;;;2.75;;
23555;SDS011;11956;53.184;8.578;2022-10-16T01:47:52;4.97;;;2.35;;
23555;SDS011;11956;53.184;8.578;2022-10-16T01:51:03;3.80;;;2.30;;
23555;SDS011;11956;53.184;8.578;2022-10-16T01:54:12;6.05;;;2.22;;
23555;SDS011;11956;53.184;8.578;2022-10-16T01:57:15;7.90;;;2.58;;
23555;SDS011;11956;53.184;8.578;2022-10-16T02:00:19;7.43;;;3.08;;
23555;SDS011;11956;53.184;8.578;2022-10-16T02:03:22;6.75;;;2.75;;
23555;SDS011;11956;53.184;8.578;2022-10-16T02:06:23;5.78;;;2.50;;
23555;SDS011;11956;53.184;8.578;2022-10-16T02:09:25;4.43;;;2.45;;
23555;SDS011;11956;53.184;8.578;2022-10-16T02:12:28;9.63;;;2.58;;
23555;SDS011;11956;53.184;8.578;2022-10-16T02:15:33;4.38;;;2.30;;
23555;SDS011;11956;53.184;8.578;2022-10-16T02:18:34;5.68;;;2.65;;
23555;SDS011;11956;53.184;8.578;2022-10-16T02:21:39;5.68;;;2.47;;
23555;SDS011;11956;53.184;8.578;2022-10-16T02:24:54;7.72;;;2.85;;
23555;SDS011;11956;53.184;8.578;2022-10-16T02:28:02;5.68;;;2.40;;
23555;SDS011;11956;53.184;8.578;2022-10-16T02:31:10;5.18;;;2.38;;
23555;SDS011;11956;53.184;8.578;2022-10-16T02:34:13;5.43;;;2.28;;
23555;SDS011;11956;53.184;8.578;2022-10-16T02:37:16;4.22;;;2.38;;
23555;SDS011;11956;53.184;8.578;2022-10-16T02:40:18;5.22;;;1.92;;
23555;SDS011;11956;53.184;8.578;2022-10-16T02:43:20;4.88;;;2.50;;
23555;SDS011;11956;53.184;8.578;2022-10-16T02:46:21;3.85;;;2.17;;
23555;SDS011;11956;53.184;8.578;2022-10-16T02:49:22;8.10;;;2.00;;
23555;SDS011;11956;53.184;8.578;2022-10-16T02:52:23;6.72;;;2.10;;
23555;SDS011;11956;53.184;8.578;2022-10-16T02:55:24;5.10;;;2.45;;
23555;SDS011;11956;53.184;8.578;2022-10-16T02:58:25;7.57;;;2.15;;
23555;SDS011;11956;53.184;8.578;2022-10-16T03:01:26;7.28;;;2.20;;
23555;SDS011;11956;53.184;8.578;2022-10-16T03:04:27;4.72;;;1.80;;
23555;SDS011;11956;53.184;8.578;2022-10-16T03:07:28;5.88;;;1.67;;
23555;SDS011;11956;53.184;8.578;2022-10-16T03:10:29;4.53;;;1.65;;
23555;SDS011;11956;53.184;8.578;2022-10-16T03:13:30;5.72;;;1.88;;
23555;SDS011;11956;53.184;8.578;2022-10-16T03:16:31;5.80;;;1.88;;
23555;SDS011;11956;53.184;8.578;2022-10-16T03:19:32;7.30;;;2.15;;
23555;SDS011;11956;53.184;8.578;2022-10-16T03:22:33;3.38;;;1.75;;
23555;SDS011;11956;53.184;8.578;2022-10-16T03:25:34;9.13;;;2.40;;
23555;SDS011;11956;53.184;8.578;2022-10-16T03:28:35;7.07;;;2.28;;
23555;SDS011;11956;53.184;8.578;2022-10-16T03:31:36;5.57;;;2.22;;
23555;SDS011;11956;53.184;8.578;2022-10-16T03:34:37;7.80;;;2.58;;
23555;SDS011;11956;53.184;8.578;2022-10-16T03:37:38;6.70;;;2.42;;
23555;SDS011;11956;53.184;8.578;2022-10-16T03:40:39;6.72;;;2.20;;
23555;SDS011;11956;53.184;8.578;2022-10-16T03:43:40;3.83;;;2.50;;
23555;SDS011;11956;53.184;8.578;2022-10-16T03:46:41;7.25;;;2.60;;
23555;SDS011;11956;53.184;8.578;2022-10-16T03:49:42;8.38;;;2.80;;
23555;SDS011;11956;53.184;8.578;2022-10-16T03:52:42;5.95;;;2.63;;
23555;SDS011;11956;53.184;8.578;2022-10-16T03:55:43;5.93;;;3.00;;
23555;SDS011;11956;53.184;8.578;2022-10-16T03:58:45;5.47;;;3.10;;
23555;SDS011;11956;53.184;8.578;2022-10-16T04:01:45;9.98;;;3.38;;
23555;SDS011;11956;53.184;8.578;2022-10-16T04:04:46;7.88;;;3.08;;
23555;SDS011;11956;53.184;8.578;2022-10-16T04:07:47;7.10;;;3.55;;
23555;SDS011;11956;53.184;8.578;2022-10-16T04:10:48;9.52;;;3.50;;
23555;SDS011;11956;53.184;8.578;2022-10-16T04:13:49;6.93;;;3.20;;
23555;SDS011;11956;53.184;8.578;2022-10-16T04:16:50;7.07;;;3.63;;
23555;SDS011;11956;53.184;8.578;2022-10-16T04:19:51;9.20;;;4.43;;
23555;SDS011;11956;53.184;8.578;2022-10-16T04:22:51;8.73;;;4.70;;
23555;SDS011;11956;53.184;8.578;2022-10-16T04:25:52;10.15;;;4.65;;
23555;SDS011;11956;53.184;8.578;2022-10-16T04:28:53;8.70;;;4.78;;
23555;SDS011;11956;53.184;8.578;2022-10-16T04:31:54;10.90;;;5.18;;
23555;SDS011;11956;53.184;8.578;2022-10-16T04:34:55;9.15;;;5.45;;
23555;SDS011;11956;53.184;8.578;2022-10-16T04:37:59;10.48;;;5.18;;
23555;SDS011;11956;53.184;8.578;2022-10-16T04:44:00;11.00;;;6.20;;
23555;SDS011;11956;53.184;8.578;2022-10-16T04:47:01;11.55;;;5.38;;
23555;SDS011;11956;53.184;8.578;2022-10-16T04:50:02;10.07;;;6.28;;
23555;SDS011;11956;53.184;8.578;2022-10-16T04:53:04;12.70;;;6.40;;
23555;SDS011;11956;53.184;8.578;2022-10-16T04:56:06;9.07;;;6.30;;
23555;SDS011;11956;53.184;8.578;2022-10-16T04:59:07;12.15;;;6.13;;
23555;SDS011;11956;53.184;8.578;2022-10-16T05:02:07;11.82;;;6.82;;
23555;SDS011;11956;53.184;8.578;2022-10-16T05:05:09;10.65;;;6.80;;
23555;SDS011;11956;53.184;8.578;2022-10-16T05:08:11;13.00;;;7.05;;
23555;SDS011;11956;53.184;8.578;2022-10-16T05:11:13;11.00;;;7.03;;
23555;SDS011;11956;53.184;8.578;2022-10-16T05:14:14;11.13;;;7.43;;
23555;SDS011;11956;53.184;8.578;2022-10-16T05:17:15;11.77;;;6.82;;
23555;SDS011;11956;53.184;8.578;2022-10-16T05:20:16;10.90;;;7.05;;
23555;SDS011;11956;53.184;8.578;2022-10-16T05:23:17;14.25;;;7.60;;
23555;SDS011;11956;53.184;8.578;2022-10-16T05:26:18;11.60;;;7.70;;
23555;SDS011;11956;53.184;8.578;2022-10-16T05:29:19;12.32;;;8.05;;
23555;SDS011;11956;53.184;8.578;2022-10-16T05:32:20;11.75;;;7.90;;
23555;SDS011;11956;53.184;8.578;2022-10-16T05:35:21;13.68;;;7.63;;
23555;SDS011;11956;53.184;8.578;2022-10-16T05:38:22;13.65;;;8.25;;
23555;SDS011;11956;53.184;8.578;2022-10-16T05:41:23;13.77;;;8.45;;
23555;SDS011;11956;53.184;8.578;2022-10-16T05:44:26;14.30;;;9.00;;
23555;SDS011;11956;53.184;8.578;2022-10-16T05:47:27;12.45;;;8.20;;
23555;SDS011;11956;53.184;8.578;2022-10-16T05:50:27;14.60;;;9.43;;
23555;SDS011;11956;53.184;8.578;2022-10-16T05:53:29;13.70;;;9.25;;
23555;SDS011;11956;53.184;8.578;2022-10-16T05:56:32;15.80;;;10.13;;
23555;SDS011;11956;53.184;8.578;2022-10-16T05:59:33;12.75;;;9.40;;
23555;SDS011;11956;53.184;8.578;2022-10-16T06:02:33;13.55;;;9.73;;
23555;SDS011;11956;53.184;8.578;2022-10-16T06:05:34;19.05;;;9.73;;
23555;SDS011;11956;53.184;8.578;2022-10-16T06:08:36;13.30;;;9.55;;
23555;SDS011;11956;53.184;8.578;2022-10-16T06:11:38;17.10;;;10.77;;
23555;SDS011;11956;53.184;8.578;2022-10-16T06:14:39;15.82;;;9.57;;
23555;SDS011;11956;53.184;8.578;2022-10-16T06:17:40;14.70;;;9.60;;
23555;SDS011;11956;53.184;8.578;2022-10-16T06:20:41;15.63;;;9.55;;
23555;SDS011;11956;53.184;8.578;2022-10-16T06:23:42;15.10;;;9.90;;
23555;SDS011;11956;53.184;8.578;2022-10-16T06:26:45;17.42;;;10.93;;
23555;SDS011;11956;53.184;8.578;2022-10-16T06:29:46;14.90;;;9.40;;
23555;SDS011;11956;53.184;8.578;2022-10-16T06:32:47;17.40;;;9.95;;
23555;SDS011;11956;53.184;8.578;2022-10-16T06:35:48;15.85;;;10.63;;
23555;SDS011;11956;53.184;8.578;2022-10-16T06:38:49;14.88;;;9.40;;
23555;SDS011;11956;53.184;8.578;2022-10-16T06:41:50;13.15;;;9.80;;
23555;SDS011;11956;53.184;8.578;2022-10-16T06:44:51;14.05;;;9.27;;
23555;SDS011;11956;53.184;8.578;2022-10-16T06:47:52;12.82;;;9.40;;
23555;SDS011;11956;53.184;8.578;2022-10-16T06:54:02;12.15;;;8.15;;
23555;SDS011;11956;53.184;8.578;2022-10-16T06:57:03;13.73;;;8.70;;
23555;SDS011;11956;53.184;8.578;2022-10-16T07:00:04;12.18;;;8.10;;
23555;SDS011;11956;53.184;8.578;2022-10-16T07:03:06;13.25;;;7.80;;
23555;SDS011;11956;53.184;8.578;2022-10-16T07:06:07;8.80;;;7.03;;
23555;SDS011;11956;53.184;8.578;2022-10-16T07:09:10;10.25;;;7.22;;
23555;SDS011;11956;53.184;8.578;2022-10-16T07:12:12;9.50;;;6.72;;
23555;SDS011;11956;53.184;8.578;2022-10-16T07:15:12;10.35;;;6.15;;
23555;SDS011;11956;53.184;8.578;2022-10-16T07:18:13;7.55;;;6.00;;
23555;SDS011;11956;53.184;8.578;2022-10-16T07:27:19;8.80;;;6.10;;
23555;SDS011;11956;53.184;8.578;2022-10-16T07:30:22;8.38;;;6.18;;
23555;SDS011;11956;53.184;8.578;2022-10-16T07:33:23;10.88;;;7.25;;
23555;SDS011;11956;53.184;8.578;2022-10-16T07:36:24;10.60;;;6.30;;
23555;SDS011;11956;53.184;8.578;2022-10-16T07:39:25;9.15;;;6.63;;
23555;SDS011;11956;53.184;8.578;2022-10-16T07:42:26;9.98;;;6.25;;
23555;SDS011;11956;53.184;8.578;2022-10-16T07:45:28;8.70;;;6.00;;
23555;SDS011;11956;53.184;8.578;2022-10-16T07:48:30;8.55;;;5.40;;
23555;SDS011;11956;53.184;8.578;2022-10-16T07:51:33;7.38;;;5.22;;
23555;SDS011;11956;53.184;8.578;2022-10-16T07:54:34;8.52;;;5.35;;
23555;SDS011;11956;53.184;8.578;2022-10-16T07:57:35;9.50;;;4.70;;
23555;SDS011;11956;53.184;8.578;2022-10-16T08:00:36;6.53;;;4.85;;
23555;SDS011;11956;53.184;8.578;2022-10-16T08:03:38;8.07;;;4.95;;
23555;SDS011;11956;53.184;8.578;2022-10-16T08:06:42;6.15;;;4.28;;
23555;SDS011;11956;53.184;8.578;2022-10-16T08:09:43;10.32;;;4.35;;
23555;SDS011;11956;53.184;8.578;2022-10-16T08:12:44;8.95;;;4.30;;
23555;SDS011;11956;53.184;8.578;2022-10-16T08:15:45;7.78;;;4.47;;
23555;SDS011;11956;53.184;8.578;2022-10-16T08:18:46;10.07;;;4.60;;
23555;SDS011;11956;53.184;8.578;2022-10-16T08:21:47;7.10;;;3.53;;
23555;SDS011;11956;53.184;8.578;2022-10-16T08:24:48;5.30;;;3.35;;
23555;SDS011;11956;53.184;8.578;2022-10-16T08:27:49;4.95;;;2.80;;
23555;SDS011;11956;53.184;8.578;2022-10-16T08:30:50;5.00;;;2.97;;
23555;SDS011;11956;53.184;8.578;2022-10-16T08:33:51;5.45;;;2.80;;
23555;SDS011;11956;53.184;8.578;2022-10-16T08:36:53;4.90;;;3.20;;
23555;SDS011;11956;53.184;8.578;2022-10-16T08:39:54;4.70;;;2.58;;
23555;SDS011;11956;53.184;8.578;2022-10-16T08:49:57;6.28;;;2.45;;
23555;SDS011;11956;53.184;8.578;2022-10-16T08:53:01;7.15;;;2.03;;
23555;SDS011;11956;53.184;8.578;2022-10-16T08:56:06;3.60;;;1.95;;
23555;SDS011;11956;53.184;8.578;2022-10-16T08:59:09;4.88;;;1.85;;
23555;SDS011;11956;53.184;8.578;2022-10-16T09:17:01;5.63;;;1.60;;
23555;SDS011;11956;53.184;8.578;2022-10-16T09:24:06;5.63;;;1.50;;
23555;SDS011;11956;53.184;8.578;2022-10-16T09:27:18;6.18;;;1.60;;
23555;SDS011;11956;53.184;8.578;2022-10-16T09:30:20;5.60;;;1.63;;
23555;SDS011;11956;53.184;8.578;2022-10-16T09:33:23;5.22;;;1.40;;
23555;SDS011;11956;53.184;8.578;2022-10-16T09:36:42;5.88;;;1.48;;
23555;SDS011;11956;53.184;8.578;2022-10-16T09:39:45;4.88;;;1.20;;
23555;SDS011;11956;53.184;8.578;2022-10-16T09:42:48;4.43;;;1.25;;
23555;SDS011;11956;53.184;8.578;2022-10-16T09:45:54;5.55;;;1.25;;
23555;SDS011;11956;53.184;8.578;2022-10-16T09:49:04;3.67;;;1.13;;
23555;SDS011;11956;53.184;8.578;2022-10-16T09:52:18;4.88;;;1.35;;
23555;SDS011;11956;53.184;8.578;2022-10-16T09:55:20;3.20;;;1.20;;
23555;SDS011;11956;53.184;8.578;2022-10-16T09:58:21;3.17;;;1.27;;
23555;SDS011;11956;53.184;8.578;2022-10-16T10:02:08;4.63;;;1.20;;
23555;SDS011;11956;53.184;8.578;2022-10-16T10:04:52;2.38;;;0.98;;
23555;SDS011;11956;53.184;8.578;2022-10-16T10:07:55;3.35;;;1.27;;
23555;SDS011;11956;53.184;8.578;2022-10-16T10:10:59;5.85;;;1.92;;
23555;SDS011;11956;53.184;8.578;2022-10-16T10:14:13;7.22;;;1.38;;
23555;SDS011;11956;53.184;8.578;2022-10-16T10:17:21;2.72;;;1.10;;
23555;SDS011;11956;53.184;8.578;2022-10-16T10:20:28;5.65;;;1.25;;
23555;SDS011;11956;53.184;8.578;2022-10-16T10:23:38;4.05;;;1.33;;
23555;SDS011;11956;53.184;8.578;2022-10-16T10:27:03;2.88;;;1.10;;
23555;SDS011;11956;53.184;8.578;2022-10-16T10:30:18;6.55;;;1.73;;
23555;SDS011;11956;53.184;8.578;2022-10-16T10:36:57;5.32;;;1.20;;
23555;SDS011;11956;53.184;8.578;2022-10-16T10:44:47;4.07;;;0.80;;
23555;SDS011;11956;53.184;8.578;2022-10-16T10:48:21;5.90;;;1.30;;
23555;SDS011;11956;53.184;8.578;2022-10-16T10:59:02;5.43;;;1.27;;
23555;SDS011;11956;53.184;8.578;2022-10-16T11:02:18;4.85;;;1.08;;
23555;SDS011;11956;53.184;8.578;2022-10-16T11:08:56;8.25;;;1.80;;
23555;SDS011;11956;53.184;8.578;2022-10-16T11:12:42;3.40;;;0.82;;
23555;SDS011;11956;53.184;8.578;2022-10-16T11:15:49;4.90;;;1.13;;
23555;SDS011;11956;53.184;8.578;2022-10-16T11:19:41;6.20;;;1.38;;
23555;SDS011;11956;53.184;8.578;2022-10-16T11:25:40;6.45;;;2.03;;
23555;SDS011;11956;53.184;8.578;2022-10-16T11:28:48;4.38;;;0.95;;
23555;SDS011;11956;53.184;8.578;2022-10-16T11:31:53;5.15;;;1.30;;
23555;SDS011;11956;53.184;8.578;2022-10-16T11:35:02;6.15;;;1.30;;
23555;SDS011;11956;53.184;8.578;2022-10-16T11:38:21;3.90;;;1.33;;
23555;SDS011;11956;53.184;8.578;2022-10-16T11:48:48;6.43;;;1.10;;
23555;SDS011;11956;53.184;8.578;2022-10-16T11:51:43;5.18;;;1.17;;
23555;SDS011;11956;53.184;8.578;2022-10-16T12:04:54;5.00;;;1.10;;
23555;SDS011;11956;53.184;8.578;2022-10-16T12:08:12;2.55;;;1.13;;
23555;SDS011;11956;53.184;8.578;2022-10-16T12:17:43;4.55;;;0.98;;
23555;SDS011;11956;53.184;8.578;2022-10-16T12:20:44;6.22;;;1.00;;
23555;SDS011;11956;53.184;8.578;2022-10-16T12:24:06;5.43;;;1.30;;
23555;SDS011;11956;53.184;8.578;2022-10-16T12:27:23;6.22;;;1.58;;
23555;SDS011;11956;53.184;8.578;2022-10-16T12:30:30;5.70;;;1.00;;
23555;SDS011;11956;53.184;8.578;2022-10-16T12:33:35;9.10;;;1.40;;
23555;SDS011;11956;53.184;8.578;2022-10-16T12:37:06;10.32;;;1.40;;
23555;SDS011;11956;53.184;8.578;2022-10-16T12:40:35;5.72;;;1.20;;
23555;SDS011;11956;53.184;8.578;2022-10-16T12:43:42;6.40;;;1.40;;
23555;SDS011;11956;53.184;8.578;2022-10-16T12:46:46;9.15;;;1.20;;
23555;SDS011;11956;53.184;8.578;2022-10-16T12:49:51;5.60;;;1.40;;
23555;SDS011;11956;53.184;8.578;2022-10-16T12:52:54;6.53;;;1.27;;
23555;SDS011;11956;53.184;8.578;2022-10-16T13:16:36;7.57;;;1.23;;
23555;SDS011;11956;53.184;8.578;2022-10-16T13:20:05;8.07;;;1.30;;
23555;SDS011;11956;53.184;8.578;2022-10-16T13:30:27;8.45;;;1.00;;
23555;SDS011;11956;53.184;8.578;2022-10-16T13:33:37;4.57;;;0.80;;
23555;SDS011;11956;53.184;8.578;2022-10-16T13:36:43;6.18;;;1.25;;
23555;SDS011;11956;53.184;8.578;2022-10-16T13:39:48;5.63;;;1.15;;
23555;SDS011;11956;53.184;8.578;2022-10-16T13:42:50;6.22;;;1.25;;
23555;SDS011;11956;53.184;8.578;2022-10-16T13:45:54;6.22;;;1.30;;
23555;SDS011;11956;53.184;8.578;2022-10-16T13:52:00;9.97;;;1.13;;
23555;SDS011;11956;53.184;8.578;2022-10-16T13:55:01;7.95;;;1.20;;
23555;SDS011;11956;53.184;8.578;2022-10-16T13:58:08;7.78;;;1.60;;
23555;SDS011;11956;53.184;8.578;2022-10-16T14:01:18;6.93;;;1.25;;
23555;SDS011;11956;53.184;8.578;2022-10-16T14:04:23;8.02;;;1.40;;
23555;SDS011;11956;53.184;8.578;2022-10-16T14:07:28;9.50;;;1.40;;
23555;SDS011;11956;53.184;8.578;2022-10-16T14:10:32;6.60;;;1.20;;
23555;SDS011;11956;53.184;8.578;2022-10-16T14:13:37;7.72;;;1.60;;
23555;SDS011;11956;53.184;8.578;2022-10-16T14:16:43;7.03;;;1.60;;
23555;SDS011;11956;53.184;8.578;2022-10-16T14:19:46;8.57;;;1.30;;
23555;SDS011;11956;53.184;8.578;2022-10-16T14:22:57;7.07;;;1.23;;
23555;SDS011;11956;53.184;8.578;2022-10-16T14:29:14;8.13;;;1.70;;
23555;SDS011;11956;53.184;8.578;2022-10-16T14:32:22;8.25;;;1.27;;
23555;SDS011;11956;53.184;8.578;2022-10-16T14:38:48;6.43;;;1.38;;
23555;SDS011;11956;53.184;8.578;2022-10-16T14:41:58;6.38;;;1.30;;
23555;SDS011;11956;53.184;8.578;2022-10-16T14:44:59;7.63;;;1.60;;
23555;SDS011;11956;53.184;8.578;2022-10-16T14:48:00;9.63;;;1.65;;
23555;SDS011;11956;53.184;8.578;2022-10-16T14:51:08;7.40;;;1.38;;
23555;SDS011;11956;53.184;8.578;2022-10-16T14:54:15;4.72;;;1.20;;
23555;SDS011;11956;53.184;8.578;2022-10-16T14:57:18;9.10;;;1.70;;
23555;SDS011;11956;53.184;8.578;2022-10-16T15:00:23;5.82;;;1.50;;
23555;SDS011;11956;53.184;8.578;2022-10-16T15:03:24;7.20;;;1.50;;
23555;SDS011;11956;53.184;8.578;2022-10-16T15:06:25;7.38;;;1.50;;
23555;SDS011;11956;53.184;8.578;2022-10-16T15:09:26;8.07;;;1.80;;
23555;SDS011;11956;53.184;8.578;2022-10-16T15:12:27;6.05;;;1.80;;
23555;SDS011;11956;53.184;8.578;2022-10-16T15:15:31;9.63;;;2.35;;
23555;SDS011;11956;53.184;8.578;2022-10-16T15:18:37;6.47;;;1.35;;
23555;SDS011;11956;53.184;8.578;2022-10-16T15:21:37;7.80;;;1.52;;
23555;SDS011;11956;53.184;8.578;2022-10-16T15:24:38;9.43;;;1.80;;
23555;SDS011;11956;53.184;8.578;2022-10-16T15:27:39;4.25;;;1.65;;
23555;SDS011;11956;53.184;8.578;2022-10-16T15:30:40;9.52;;;2.20;;
23555;SDS011;11956;53.184;8.578;2022-10-16T15:33:42;7.88;;;1.95;;
23555;SDS011;11956;53.184;8.578;2022-10-16T15:36:43;7.75;;;2.00;;
23555;SDS011;11956;53.184;8.578;2022-10-16T15:39:44;7.00;;;1.45;;
23555;SDS011;11956;53.184;8.578;2022-10-16T15:42:45;8.43;;;1.70;;
23555;SDS011;11956;53.184;8.578;2022-10-16T15:49:03;6.60;;;1.80;;
23555;SDS011;11956;53.184;8.578;2022-10-16T15:52:04;9.18;;;1.55;;
23555;SDS011;11956;53.184;8.578;2022-10-16T15:55:09;8.10;;;1.98;;
23555;SDS011;11956;53.184;8.578;2022-10-16T15:58:12;6.30;;;1.58;;
23555;SDS011;11956;53.184;8.578;2022-10-16T16:01:13;9.20;;;1.75;;
23555;SDS011;11956;53.184;8.578;2022-10-16T16:04:14;5.78;;;1.70;;
23555;SDS011;11956;53.184;8.578;2022-10-16T16:07:16;4.97;;;1.50;;
23555;SDS011;11956;53.184;8.578;2022-10-16T16:10:18;7.93;;;1.75;;
23555;SDS011;11956;53.184;8.578;2022-10-16T16:13:20;8.00;;;1.47;;
23555;SDS011;11956;53.184;8.578;2022-10-16T16:16:21;10.25;;;2.55;;
23555;SDS011;11956;53.184;8.578;2022-10-16T16:19:22;6.90;;;1.40;;
23555;SDS011;11956;53.184;8.578;2022-10-16T16:22:23;12.15;;;2.08;;
23555;SDS011;11956;53.184;8.578;2022-10-16T16:25:24;10.18;;;3.70;;
23555;SDS011;11956;53.184;8.578;2022-10-16T16:28:25;6.18;;;2.20;;
23555;SDS011;11956;53.184;8.578;2022-10-16T16:31:27;11.68;;;2.15;;
23555;SDS011;11956;53.184;8.578;2022-10-16T16:34:29;7.72;;;1.67;;
23555;SDS011;11956;53.184;8.578;2022-10-16T16:37:30;11.80;;;1.52;;
23555;SDS011;11956;53.184;8.578;2022-10-16T16:40:31;5.25;;;1.30;;
23555;SDS011;11956;53.184;8.578;2022-10-16T16:43:32;7.35;;;1.90;;
23555;SDS011;11956;53.184;8.578;2022-10-16T16:46:34;6.80;;;1.40;;
23555;SDS011;11956;53.184;8.578;2022-10-16T16:49:35;10.88;;;1.70;;
23555;SDS011;11956;53.184;8.578;2022-10-16T16:52:36;7.00;;;2.25;;
23555;SDS011;11956;53.184;8.578;2022-10-16T16:55:37;11.45;;;1.98;;
23555;SDS011;11956;53.184;8.578;2022-10-16T16:58:39;11.00;;;1.98;;
23555;SDS011;11956;53.184;8.578;2022-10-16T17:01:40;11.98;;;2.65;;
23555;SDS011;11956;53.184;8.578;2022-10-16T17:04:41;7.97;;;2.08;;
23555;SDS011;11956;53.184;8.578;2022-10-16T17:07:42;6.65;;;2.00;;
23555;SDS011;11956;53.184;8.578;2022-10-16T17:10:43;12.43;;;2.20;;
23555;SDS011;11956;53.184;8.578;2022-10-16T17:13:44;7.93;;;1.70;;
23555;SDS011;11956;53.184;8.578;2022-10-16T17:16:45;8.82;;;2.08;;
23555;SDS011;11956;53.184;8.578;2022-10-16T17:19:51;11.38;;;3.65;;
23555;SDS011;11956;53.184;8.578;2022-10-16T17:22:52;12.80;;;2.90;;
23555;SDS011;11956;53.184;8.578;2022-10-16T17:25:53;8.23;;;1.83;;
23555;SDS011;11956;53.184;8.578;2022-10-16T17:28:55;7.63;;;2.08;;
23555;SDS011;11956;53.184;8.578;2022-10-16T17:31:58;12.13;;;2.53;;
23555;SDS011;11956;53.184;8.578;2022-10-16T17:34:59;9.70;;;2.25;;
23555;SDS011;11956;53.184;8.578;2022-10-16T17:38:00;10.63;;;2.20;;
23555;SDS011;11956;53.184;8.578;2022-10-16T17:41:21;7.18;;;1.85;;
23555;SDS011;11956;53.184;8.578;2022-10-16T17:44:23;7.68;;;3.08;;
23555;SDS011;11956;53.184;8.578;2022-10-16T17:47:24;9.80;;;1.95;;
23555;SDS011;11956;53.184;8.578;2022-10-16T17:50:25;7.28;;;2.50;;
23555;SDS011;11956;53.184;8.578;2022-10-16T17:53:26;10.02;;;2.63;;
23555;SDS011;11956;53.184;8.578;2022-10-16T17:56:28;8.07;;;2.17;;
23555;SDS011;11956;53.184;8.578;2022-10-16T17:59:29;6.43;;;2.40;;
23555;SDS011;11956;53.184;8.578;2022-10-16T18:02:30;14.65;;;2.67;;
23555;SDS011;11956;53.184;8.578;2022-10-16T18:05:36;13.82;;;3.30;;
23555;SDS011;11956;53.184;8.578;2022-10-16T18:08:37;10.05;;;2.30;;
23555;SDS011;11956;53.184;8.578;2022-10-16T18:11:38;15.70;;;3.60;;
23555;SDS011;11956;53.184;8.578;2022-10-16T18:14:39;11.98;;;3.25;;
23555;SDS011;11956;53.184;8.578;2022-10-16T18:17:40;12.63;;;4.18;;
23555;SDS011;11956;53.184;8.578;2022-10-16T18:20:42;12.43;;;4.18;;
23555;SDS011;11956;53.184;8.578;2022-10-16T18:23:44;13.40;;;3.90;;
23555;SDS011;11956;53.184;8.578;2022-10-16T18:26:48;7.78;;;3.17;;
23555;SDS011;11956;53.184;8.578;2022-10-16T18:29:49;15.93;;;4.82;;
23555;SDS011;11956;53.184;8.578;2022-10-16T18:32:55;13.50;;;5.32;;
23555;SDS011;11956;53.184;8.578;2022-10-16T18:36:00;13.95;;;5.13;;
23555;SDS011;11956;53.184;8.578;2022-10-16T18:39:09;14.13;;;5.97;;
23555;SDS011;11956;53.184;8.578;2022-10-16T18:42:12;13.43;;;6.30;;
23555;SDS011;11956;53.184;8.578;2022-10-16T18:45:13;18.00;;;6.28;;
23555;SDS011;11956;53.184;8.578;2022-10-16T18:48:14;16.73;;;7.47;;
23555;SDS011;11956;53.184;8.578;2022-10-16T18:51:32;20.40;;;7.25;;
23555;SDS011;11956;53.184;8.578;2022-10-16T18:54:35;22.08;;;6.15;;
23555;SDS011;11956;53.184;8.578;2022-10-16T18:57:36;16.10;;;5.20;;
23555;SDS011;11956;53.184;8.578;2022-10-16T19:00:37;15.10;;;5.95;;
23555;SDS011;11956;53.184;8.578;2022-10-16T19:03:38;14.73;;;7.00;;
23555;SDS011;11956;53.184;8.578;2022-10-16T19:06:42;18.50;;;7.75;;
23555;SDS011;11956;53.184;8.578;2022-10-16T19:09:46;23.33;;;10.25;;
23555;SDS011;11956;53.184;8.578;2022-10-16T19:12:47;20.80;;;11.15;;
23555;SDS011;11956;53.184;8.578;2022-10-16T19:15:48;24.30;;;11.50;;
23555;SDS011;11956;53.184;8.578;2022-10-16T19:18:49;22.65;;;10.07;;
23555;SDS011;11956;53.184;8.578;2022-10-16T19:21:54;22.45;;;9.98;;
23555;SDS011;11956;53.184;8.578;2022-10-16T19:25:10;18.33;;;8.85;;
23555;SDS011;11956;53.184;8.578;2022-10-16T19:28:11;16.55;;;9.48;;
23555;SDS011;11956;53.184;8.578;2022-10-16T19:31:13;18.88;;;10.02;;
23555;SDS011;11956;53.184;8.578;2022-10-16T19:34:16;18.25;;;9.93;;
23555;SDS011;11956;53.184;8.578;2022-10-16T19:37:17;15.85;;;9.20;;
23555;SDS011;11956;53.184;8.578;2022-10-16T19:40:24;20.27;;;10.18;;
23555;SDS011;11956;53.184;8.578;2022-10-16T19:43:26;21.00;;;10.80;;
23555;SDS011;11956;53.184;8.578;2022-10-16T19:46:27;20.13;;;11.13;;
23555;SDS011;11956;53.184;8.578;2022-10-16T19:49:28;17.10;;;9.30;;
23555;SDS011;11956;53.184;8.578;2022-10-16T19:52:29;19.88;;;9.35;;
23555;SDS011;11956;53.184;8.578;2022-10-16T19:55:30;19.33;;;9.30;;
23555;SDS011;11956;53.184;8.578;2022-10-16T19:58:31;22.67;;;9.95;;
23555;SDS011;11956;53.184;8.578;2022-10-16T20:01:32;18.27;;;10.40;;
23555;SDS011;11956;53.184;8.578;2022-10-16T20:04:34;17.13;;;9.75;;
23555;SDS011;11956;53.184;8.578;2022-10-16T20:07:35;15.65;;;9.02;;
23555;SDS011;11956;53.184;8.578;2022-10-16T20:10:35;17.73;;;8.27;;
23555;SDS011;11956;53.184;8.578;2022-10-16T20:13:36;18.80;;;8.40;;
23555;SDS011;11956;53.184;8.578;2022-10-16T20:16:38;19.42;;;8.07;;
23555;SDS011;11956;53.184;8.578;2022-10-16T20:19:39;15.45;;;8.00;;
23555;SDS011;11956;53.184;8.578;2022-10-16T20:22:40;15.65;;;8.55;;
23555;SDS011;11956;53.184;8.578;2022-10-16T20:25:42;18.52;;;8.27;;
23555;SDS011;11956;53.184;8.578;2022-10-16T20:28:43;16.00;;;7.85;;
23555;SDS011;11956;53.184;8.578;2022-10-16T20:31:44;16.52;;;8.68;;
23555;SDS011;11956;53.184;8.578;2022-10-16T20:34:45;17.70;;;8.52;;
23555;SDS011;11956;53.184;8.578;2022-10-16T20:37:48;15.17;;;8.37;;
23555;SDS011;11956;53.184;8.578;2022-10-16T20:40:49;17.30;;;9.25;;
23555;SDS011;11956;53.184;8.578;2022-10-16T20:43:50;13.70;;;8.20;;
23555;SDS011;11956;53.184;8.578;2022-10-16T20:46:55;15.13;;;9.02;;